createdAt,value
2023-02-25T00:02:02.742Z,95285.26
2023-02-25T00:04:32.414Z,95281.04
2023-02-25T00:07:01.747Z,95284.61
2023-02-25T00:09:30.530Z,95271.60
2023-02-25T00:11:58.798Z,95274.42
2023-02-25T00:14:27.831Z,95276.98
2023-02-25T00:16:56.468Z,95267.00
2023-02-25T00:19:26.024Z,95265.42
2023-02-25T00:21:54.078Z,95260.11
2023-02-25T00:24:22.038Z,95257.92
2023-02-25T00:26:50.446Z,95248.77
2023-02-25T00:29:18.499Z,95242.39
2023-02-25T00:31:47.082Z,95236.72
2023-02-25T00:34:18.033Z,95228.34
2023-02-25T00:36:46.403Z,95223.48
2023-02-25T00:39:15.057Z,95213.80
2023-02-25T00:41:43.487Z,95228.72
2023-02-25T00:44:11.432Z,95227.56
2023-02-25T00:46:39.710Z,95217.92
2023-02-25T00:49:07.988Z,95225.84
2023-02-25T00:51:38.615Z,95222.62
2023-02-25T00:54:06.803Z,95221.41
2023-02-25T00:56:35.073Z,95209.98
2023-02-25T00:59:03.145Z,95213.75
2023-02-25T01:01:33.616Z,95215.39
2023-02-25T01:04:02.148Z,95209.32
2023-02-25T01:06:32.102Z,95200.14
2023-02-25T01:09:00.906Z,95187.81
2023-02-25T01:11:32.002Z,95177.87
2023-02-25T01:14:08.430Z,95173.80
2023-02-25T01:16:38.144Z,95170.77
2023-02-25T01:19:12.652Z,95168.38
2023-02-25T01:21:44.441Z,95160.92
2023-02-25T01:24:22.138Z,95162.63
2023-02-25T01:26:53.706Z,95164.76
2023-02-25T01:29:28.042Z,95161.45
2023-02-25T01:31:59.427Z,95161.83
2023-02-25T01:34:29.121Z,95158.32
2023-02-25T01:36:57.760Z,95159.63
2023-02-25T01:39:27.868Z,95155.81
2023-02-25T01:41:58.953Z,95144.70
2023-02-25T01:44:32.130Z,95130.57
2023-02-25T01:47:01.564Z,95129.20
2023-02-25T01:49:46.492Z,95127.93
2023-02-25T01:52:21.105Z,95128.27
2023-02-25T01:54:54.186Z,95123.60
2023-02-25T01:57:23.935Z,95132.30
2023-02-25T01:59:54.554Z,95131.73
2023-02-25T02:02:24.645Z,95127.23
2023-02-25T02:04:54.987Z,95115.30
2023-02-25T02:07:24.992Z,95109.88
2023-02-25T02:09:56.263Z,95109.89
2023-02-25T02:12:27.717Z,95107.98
2023-02-25T02:14:59.608Z,95094.17
2023-02-25T02:17:40.856Z,95084.40
2023-02-25T02:20:14.963Z,95086.00
2023-02-25T02:23:14.988Z,95088.35
2023-02-25T02:26:17.379Z,95082.18
2023-02-25T02:29:19.126Z,95078.04
2023-02-25T02:31:52.897Z,95085.67
2023-02-25T02:34:35.852Z,95078.08
2023-02-25T02:37:29.741Z,95062.36
2023-02-25T02:40:25.036Z,95054.98
2023-02-25T02:43:04.578Z,95043.30
2023-02-25T02:45:57.053Z,95055.05
2023-02-25T02:48:30.117Z,95073.05
2023-02-25T02:51:02.259Z,95068.98
2023-02-25T02:53:40.216Z,95073.58
2023-02-25T02:56:12.401Z,95067.61
2023-02-25T02:58:40.313Z,95071.83
2023-02-25T03:01:19.450Z,95071.43
2023-02-25T03:03:52.401Z,95065.20
2023-02-25T03:06:29.677Z,95059.21
2023-02-25T03:09:04.540Z,95064.90
2023-02-25T03:11:34.465Z,95060.69
2023-02-25T03:14:02.751Z,95058.35
2023-02-25T03:17:00.410Z,95044.08
2023-02-25T03:19:44.298Z,95047.10
2023-02-25T03:22:16.043Z,95045.52
2023-02-25T03:24:56.581Z,95039.33
2023-02-25T03:27:34.471Z,95036.12
2023-02-25T03:30:15.555Z,95036.73
2023-02-25T03:32:49.774Z,95032.75
2023-02-25T03:35:21.161Z,95027.23
2023-02-25T03:37:53.158Z,95021.91
2023-02-25T03:40:23.721Z,95009.51
2023-02-25T03:42:58.858Z,94999.59
2023-02-25T03:45:28.404Z,94995.89
2023-02-25T03:47:58.484Z,94987.13
2023-02-25T03:50:31.200Z,94977.71
2023-02-25T03:53:01.801Z,94985.81
2023-02-25T03:56:08.711Z,94986.02
2023-02-25T03:58:39.231Z,94987.30
2023-02-25T04:01:17.347Z,95007.92
2023-02-25T04:03:45.796Z,95016.77
2023-02-25T04:06:15.098Z,95016.41
2023-02-25T04:08:43.274Z,95018.69
2023-02-25T04:11:11.229Z,95006.90
2023-02-25T04:13:39.922Z,95001.89
2023-02-25T04:16:08.611Z,94995.13
2023-02-25T04:18:36.874Z,94988.13
2023-02-25T04:21:07.502Z,94988.82
2023-02-25T04:23:36.707Z,94984.20
2023-02-25T04:26:04.966Z,94973.64
2023-02-25T04:28:32.883Z,94965.48
2023-02-25T04:31:01.197Z,94952.83
2023-02-25T04:33:29.307Z,94931.84
2023-02-25T04:35:57.376Z,94932.38
2023-02-25T04:38:25.748Z,94935.91
2023-02-25T04:40:53.720Z,94937.16
2023-02-25T04:43:21.900Z,94940.98
2023-02-25T04:45:49.814Z,94922.91
2023-02-25T04:48:24.399Z,94922.23
2023-02-25T04:50:52.750Z,94935.78
2023-02-25T04:53:21.048Z,94939.93
2023-02-25T04:55:49.087Z,94937.47
2023-02-25T04:58:17.593Z,94932.07
2023-02-25T05:00:49.019Z,94930.88
2023-02-25T05:03:17.547Z,94919.64
2023-02-25T05:05:45.715Z,94916.27
2023-02-25T05:08:13.780Z,94916.77
2023-02-25T05:10:41.747Z,94913.34
2023-02-25T05:13:10.130Z,94914.80
2023-02-25T05:15:38.104Z,94925.32
2023-02-25T05:18:06.268Z,94925.38
2023-02-25T05:20:34.641Z,94920.42
2023-02-25T05:23:02.741Z,94907.48
2023-02-25T05:25:30.796Z,94898.70
2023-02-25T05:27:58.975Z,94903.55
2023-02-25T05:30:26.953Z,94906.00
2023-02-25T05:32:55.143Z,94906.77
2023-02-25T05:35:23.283Z,94898.27
2023-02-25T05:37:51.571Z,94894.86
2023-02-25T05:40:19.943Z,94900.41
2023-02-25T05:42:49.667Z,94899.27
2023-02-25T05:45:18.240Z,94900.27
2023-02-25T05:47:46.322Z,94894.39
2023-02-25T05:50:14.390Z,94885.46
2023-02-25T05:52:42.755Z,94884.81
2023-02-25T05:55:11.284Z,94874.17
2023-02-25T05:57:39.316Z,94871.46
2023-02-25T06:00:09.916Z,94872.02
2023-02-25T06:02:41.615Z,94868.24
2023-02-25T06:05:10.043Z,94866.26
2023-02-25T06:07:38.054Z,94862.48
2023-02-25T06:10:06.727Z,94864.22
2023-02-25T06:12:35.317Z,94861.41
2023-02-25T06:15:03.597Z,94867.52
2023-02-25T06:17:31.661Z,94869.70
2023-02-25T06:19:59.742Z,94866.48
2023-02-25T06:22:28.120Z,94861.37
2023-02-25T06:24:56.089Z,94862.17
2023-02-25T06:27:24.464Z,94874.11
2023-02-25T06:29:52.331Z,94885.60
2023-02-25T06:32:20.456Z,94885.92
2023-02-25T06:34:48.571Z,94886.27
2023-02-25T06:37:16.557Z,94890.71
2023-02-25T06:39:44.816Z,94889.64
2023-02-25T06:42:12.793Z,94887.41
2023-02-25T06:44:40.872Z,94878.11
2023-02-25T06:47:09.146Z,94890.25
2023-02-25T06:49:37.432Z,94890.37
2023-02-25T19:11:16.448Z,95162.13
2023-02-25T19:13:43.167Z,95179.38
2023-02-25T19:16:12.365Z,95181.52
2023-02-25T19:18:41.008Z,95174.67
2023-02-25T19:21:18.566Z,95170.52
2023-02-25T19:23:46.743Z,95174.55
2023-02-25T19:26:15.412Z,95188.77
2023-02-25T19:28:42.150Z,95190.27
2023-02-25T19:31:08.967Z,95187.45
2023-02-25T19:33:35.840Z,95190.64
2023-02-25T19:36:04.010Z,95191.86
2023-02-25T19:38:30.875Z,95192.95
2023-02-25T19:41:05.817Z,95186.84
2023-02-25T19:43:33.495Z,95178.06
2023-02-25T19:46:00.698Z,95161.63
2023-02-25T19:48:27.424Z,95150.83
2023-02-25T19:50:54.640Z,95137.26
2023-02-25T19:53:21.428Z,95133.77
2023-02-25T19:55:49.288Z,95152.95
2023-02-25T19:58:16.030Z,95161.79
2023-02-25T20:00:45.695Z,95157.20
2023-02-25T20:03:14.736Z,95158.86
2023-02-25T20:05:42.101Z,95170.89
2023-02-25T20:08:09.354Z,95175.16
2023-02-25T20:10:36.194Z,95162.80
2023-02-25T20:13:02.991Z,95147.11
2023-02-25T20:15:29.633Z,95139.19
2023-02-25T20:17:56.925Z,95147.36
2023-02-25T20:20:23.665Z,95157.54
2023-02-25T20:22:50.816Z,95157.82
2023-02-25T20:25:18.586Z,95153.04
2023-02-25T20:27:45.425Z,95140.19
2023-02-25T20:30:17.220Z,95143.42
2023-02-25T20:32:45.086Z,95157.36
2023-02-25T20:35:21.133Z,95168.27
2023-02-25T20:38:17.660Z,95171.10
2023-02-25T20:40:44.695Z,95175.46
2023-02-25T20:43:11.736Z,95168.59
2023-02-25T20:45:39.104Z,95161.75
2023-02-25T20:48:06.869Z,95160.45
2023-02-25T20:50:34.010Z,95162.55
2023-02-25T20:53:01.059Z,95167.33
2023-02-25T20:55:28.411Z,95170.91
2023-02-25T20:57:55.271Z,95173.13
2023-02-25T21:00:22.114Z,95173.60
2023-02-25T21:02:49.146Z,95183.00
2023-02-25T21:05:15.898Z,95192.68
2023-02-25T21:07:42.625Z,95206.38
2023-02-25T21:10:10.510Z,95208.15
2023-02-25T21:12:37.206Z,95217.50
2023-02-25T21:15:04.497Z,95226.91
2023-02-25T21:17:31.221Z,95236.77
2023-02-25T21:19:57.980Z,95239.46
2023-02-25T21:22:24.918Z,95239.86
2023-02-25T21:24:51.659Z,95236.05
2023-02-25T21:27:18.406Z,95234.90
2023-02-25T21:29:45.236Z,95242.10
2023-02-25T21:32:12.147Z,95244.54
2023-02-25T21:34:39.353Z,95244.17
2023-02-25T21:37:06.275Z,95247.80
2023-02-25T21:39:33.326Z,95243.32
2023-02-25T21:42:00.278Z,95243.11
2023-02-25T21:44:27.106Z,95240.89
2023-02-25T21:46:53.662Z,95239.30
2023-02-25T21:49:20.400Z,95246.27
2023-02-25T21:51:47.129Z,95246.34
2023-02-25T21:54:13.949Z,95252.20
2023-02-25T21:56:40.615Z,95255.41
2023-02-25T21:59:07.448Z,95262.30
2023-02-25T22:01:37.981Z,95267.17
2023-02-25T22:04:05.386Z,95266.58
2023-02-25T22:06:32.813Z,95263.06
2023-02-25T22:09:00.360Z,95264.20
2023-02-25T22:11:29.772Z,95268.44
2023-02-25T22:13:59.378Z,95270.61
2023-02-25T22:16:26.941Z,95269.04
2023-02-25T22:18:54.402Z,95273.70
2023-02-25T22:21:24.511Z,95279.05
2023-02-25T22:23:53.602Z,95281.70
2023-02-25T22:26:24.133Z,95277.67
2023-02-25T22:29:01.963Z,95272.43
2023-02-25T22:31:29.307Z,95268.33
2023-02-25T22:33:57.488Z,95273.34
2023-02-25T22:36:25.093Z,95272.46
2023-02-25T22:38:52.592Z,95278.48
2023-02-25T22:41:24.715Z,95278.02
2023-02-25T22:43:51.805Z,95277.40
2023-02-25T22:46:21.137Z,95281.24
2023-02-25T22:48:49.530Z,95286.38
2023-02-25T22:51:23.088Z,95287.33
2023-02-25T22:53:50.234Z,95280.65
2023-02-25T22:56:17.047Z,95275.56
2023-02-25T22:58:44.120Z,95275.69
2023-02-25T23:01:13.428Z,95280.52
2023-02-25T23:03:40.374Z,95277.48
2023-02-25T23:06:07.268Z,95275.77
2023-02-25T23:08:34.564Z,95270.64
2023-02-25T23:11:16.302Z,95263.32
2023-02-25T23:13:46.964Z,95262.50
2023-02-25T23:16:27.275Z,95259.08
2023-02-25T23:18:57.676Z,95255.23
2023-02-25T23:21:25.676Z,95253.09
2023-02-25T23:23:55.458Z,95255.38
2023-02-25T23:26:28.344Z,95253.92
2023-02-25T23:28:57.442Z,95249.71
2023-02-25T23:31:26.864Z,95255.98
2023-02-25T23:33:59.165Z,95260.39
2023-02-25T23:36:26.513Z,95261.37
2023-02-25T23:38:54.569Z,95263.29
2023-02-25T23:41:21.742Z,95261.84
2023-02-25T23:43:52.328Z,95262.71
2023-02-25T23:46:19.770Z,95270.40
2023-02-25T23:48:47.315Z,95270.25
2023-02-25T23:51:14.383Z,95280.10
2023-02-25T23:53:41.442Z,95280.62
2023-02-25T23:56:11.103Z,95275.17
2023-02-25T23:58:39.465Z,95274.03
